createdAt,value
2022-09-24T00:00:29.431Z,13.70
2022-09-24T00:02:32.170Z,13.70
2022-09-24T00:04:35.760Z,13.70
2022-09-24T00:06:40.925Z,13.70
2022-09-24T00:08:43.600Z,13.70
2022-09-24T00:10:48.829Z,13.70
2022-09-24T00:12:52.368Z,13.70
2022-09-24T00:14:55.131Z,13.70
2022-09-24T00:16:59.169Z,13.70
2022-09-24T00:19:02.776Z,13.70
2022-09-24T00:21:13.795Z,13.60
2022-09-24T00:23:16.502Z,13.60
2022-09-24T00:25:37.034Z,13.60
2022-09-24T00:27:39.720Z,13.60
2022-09-24T00:29:42.395Z,13.60
2022-09-24T00:31:45.145Z,13.60
2022-09-24T00:33:52.228Z,13.60
2022-09-24T00:35:58.798Z,13.60
2022-09-24T00:38:01.506Z,13.60
2022-09-24T00:40:04.516Z,13.60
2022-09-24T00:42:07.329Z,13.60
2022-09-24T00:44:44.704Z,13.60
2022-09-24T00:46:47.513Z,13.60
2022-09-24T00:48:51.861Z,13.60
2022-09-24T00:50:54.541Z,13.60
2022-09-24T00:52:58.546Z,13.50
2022-09-24T00:55:01.336Z,13.50
2022-09-24T00:57:04.149Z,13.50
2022-09-24T00:59:07.441Z,13.50
2022-09-24T01:01:10.551Z,13.50
2022-09-24T01:03:14.723Z,13.50
2022-09-24T01:05:19.461Z,13.40
2022-09-24T01:07:22.157Z,13.40
2022-09-24T01:09:26.271Z,13.40
2022-09-24T01:11:37.135Z,13.40
2022-09-24T01:13:51.631Z,13.40
2022-09-24T01:15:56.592Z,13.40
2022-09-24T01:18:01.402Z,13.40
2022-09-24T01:20:47.843Z,13.30
2022-09-24T01:22:58.827Z,13.40
2022-09-24T01:25:02.401Z,13.40
2022-09-24T01:27:07.295Z,13.30
2022-09-24T01:29:33.243Z,13.30
2022-09-24T01:31:38.790Z,13.30
2022-09-24T01:33:41.488Z,13.30
2022-09-24T01:35:45.305Z,13.30
2022-09-24T01:37:50.085Z,13.40
2022-09-24T01:39:53.163Z,13.40
2022-09-24T01:41:57.224Z,13.40
2022-09-24T01:44:00.253Z,13.40
2022-09-24T01:46:05.973Z,13.30
2022-09-24T01:48:08.903Z,13.30
2022-09-24T01:50:13.399Z,13.30
2022-09-24T01:52:17.489Z,13.30
2022-09-24T01:54:21.922Z,13.30
2022-09-24T01:56:25.878Z,13.30
2022-09-24T01:58:30.239Z,13.30
2022-09-24T02:00:32.990Z,13.30
2022-09-24T02:02:39.621Z,13.30
2022-09-24T02:04:43.539Z,13.30
2022-09-24T02:06:48.496Z,13.30
2022-09-24T02:08:51.173Z,13.30
2022-09-24T02:10:55.865Z,13.20
2022-09-24T02:13:00.034Z,13.20
2022-09-24T02:15:05.104Z,13.20
2022-09-24T02:17:07.999Z,13.20
2022-09-24T02:19:13.088Z,13.20
2022-09-24T02:21:17.017Z,13.20
2022-09-24T02:23:19.745Z,13.20
2022-09-24T02:25:26.064Z,13.10
2022-09-24T02:27:28.921Z,13.10
2022-09-24T02:29:31.601Z,13.10
2022-09-24T02:31:35.830Z,13.10
2022-09-24T02:33:56.533Z,13.00
2022-09-24T02:36:00.567Z,13.10
2022-09-24T02:38:06.290Z,13.00
2022-09-24T02:40:10.547Z,13.00
2022-09-24T02:42:14.185Z,13.00
2022-09-24T02:44:16.988Z,13.00
2022-09-24T02:46:19.833Z,13.00
2022-09-24T02:48:22.536Z,13.00
2022-09-24T02:50:25.209Z,13.00
2022-09-24T02:52:29.241Z,13.00
2022-09-24T02:54:32.123Z,13.00
2022-09-24T02:56:34.892Z,13.00
2022-09-24T02:58:38.013Z,13.00
2022-09-24T03:00:40.685Z,13.00
2022-09-24T03:02:43.590Z,12.90
2022-09-24T03:04:47.089Z,12.90
2022-09-24T03:06:49.790Z,13.00
2022-09-24T03:08:54.136Z,12.90
2022-09-24T03:10:56.914Z,12.90
2022-09-24T03:12:59.986Z,12.90
2022-09-24T03:15:02.664Z,12.90
2022-09-24T03:17:05.350Z,12.90
2022-09-24T03:19:08.352Z,12.90
2022-09-24T03:21:12.252Z,12.80
2022-09-24T03:23:14.949Z,12.90
2022-09-24T03:25:18.981Z,12.80
2022-09-24T03:27:21.909Z,12.80
2022-09-24T03:29:45.015Z,12.80
2022-09-24T03:31:46.786Z,12.80
2022-09-24T03:33:49.931Z,12.80
2022-09-24T03:35:56.741Z,12.80
2022-09-24T03:37:59.436Z,12.80
2022-09-24T03:40:02.526Z,12.70
2022-09-24T03:42:06.712Z,12.70
2022-09-24T03:44:09.433Z,12.70
2022-09-24T03:46:12.637Z,12.70
2022-09-24T03:48:15.637Z,12.70
2022-09-24T03:50:18.461Z,12.60
2022-09-24T03:52:21.174Z,12.60
2022-09-24T03:54:23.855Z,12.60
2022-09-24T03:56:26.553Z,12.50
2022-09-24T03:58:31.604Z,12.50
2022-09-24T04:00:37.588Z,12.60
2022-09-24T04:02:43.684Z,12.60
2022-09-24T04:04:46.425Z,12.60
2022-09-24T04:06:49.807Z,12.60
2022-09-24T04:08:52.488Z,12.50
2022-09-24T04:10:55.321Z,12.40
2022-09-24T04:12:58.470Z,12.40
2022-09-24T04:15:02.928Z,12.30
2022-09-24T04:17:05.954Z,12.30
2022-09-24T04:19:08.635Z,12.40
2022-09-24T04:21:11.343Z,12.40
2022-09-24T04:23:14.060Z,12.40
2022-09-24T04:25:16.809Z,12.40
2022-09-24T04:27:20.524Z,12.40
2022-09-24T04:29:23.197Z,12.40
2022-09-24T04:31:27.533Z,12.50
2022-09-24T04:33:30.321Z,12.50
2022-09-24T04:35:35.821Z,12.50
2022-09-24T04:37:38.520Z,12.50
2022-09-24T04:39:41.188Z,12.50
2022-09-24T04:41:43.901Z,12.50
2022-09-24T04:43:47.229Z,12.50
2022-09-24T04:45:49.904Z,12.40
2022-09-24T04:47:57.727Z,12.40
2022-09-24T04:50:02.573Z,12.40
2022-09-24T04:52:05.244Z,12.40
2022-09-24T04:54:09.605Z,12.40
2022-09-24T04:56:12.576Z,12.40
2022-09-24T04:58:15.269Z,12.30
2022-09-24T05:00:19.126Z,12.40
2022-09-24T05:02:24.166Z,12.40
2022-09-24T05:04:28.790Z,12.30
2022-09-24T05:06:31.473Z,12.30
2022-09-24T05:08:34.188Z,12.40
2022-09-24T05:10:36.868Z,12.30
2022-09-24T05:12:41.220Z,12.30
2022-09-24T05:14:43.897Z,12.30
2022-09-24T05:16:46.577Z,12.40
2022-09-24T05:18:49.263Z,12.40
2022-09-24T05:20:53.281Z,12.40
2022-09-24T05:22:55.968Z,12.40
2022-09-24T05:24:58.646Z,12.40
2022-09-24T05:27:09.916Z,12.30
2022-09-24T05:29:12.636Z,12.20
2022-09-24T05:31:15.372Z,12.20
2022-09-24T05:33:18.503Z,12.10
2022-09-24T05:35:21.426Z,12.10
2022-09-24T05:37:25.798Z,12.20
2022-09-24T05:39:33.448Z,12.20
2022-09-24T05:41:36.713Z,12.20
2022-09-24T05:43:39.400Z,12.20
2022-09-24T05:45:42.697Z,12.20
2022-09-24T05:47:46.033Z,12.20
2022-09-24T05:49:48.712Z,12.20
2022-09-24T05:51:51.465Z,12.20
2022-09-24T05:53:55.518Z,12.20
2022-09-24T05:55:58.712Z,12.30
2022-09-24T05:58:06.580Z,12.30
2022-09-24T06:00:09.917Z,12.30
2022-09-24T06:02:12.703Z,12.30
2022-09-24T06:04:16.293Z,12.30
2022-09-24T06:06:18.983Z,12.20
2022-09-24T06:08:21.768Z,12.20
2022-09-24T06:10:26.069Z,12.20
2022-09-24T06:12:28.772Z,12.20
2022-09-24T06:14:31.449Z,12.20
2022-09-24T06:16:34.635Z,12.20
2022-09-24T06:18:38.045Z,12.20
2022-09-24T06:20:41.107Z,12.20
2022-09-24T06:22:43.812Z,12.20
2022-09-24T06:24:46.838Z,12.20
2022-09-24T06:26:51.878Z,12.20
2022-09-24T06:28:54.615Z,12.20
2022-09-24T06:30:57.367Z,12.30
2022-09-24T06:33:03.141Z,12.30
2022-09-24T06:35:06.637Z,12.40
2022-09-24T06:37:09.329Z,12.40
2022-09-24T06:39:12.031Z,12.40
2022-09-24T06:41:14.712Z,12.50
2022-09-24T06:43:18.915Z,12.50
2022-09-24T06:45:21.690Z,12.60
2022-09-24T06:47:25.024Z,12.50
2022-09-24T06:49:31.546Z,12.50
2022-09-24T06:51:36.672Z,12.70
2022-09-24T06:53:39.380Z,12.70
2022-09-24T06:55:42.091Z,12.70
2022-09-24T06:57:44.978Z,12.70
2022-09-24T06:59:50.926Z,12.80
2022-09-24T07:01:53.666Z,12.90
2022-09-24T07:03:56.410Z,12.90
2022-09-24T07:06:01.327Z,12.90
2022-09-24T07:08:04.034Z,12.90
2022-09-24T07:10:07.592Z,13.00
2022-09-24T07:12:10.414Z,13.00
2022-09-24T07:14:13.112Z,13.10
2022-09-24T07:16:17.166Z,13.10
2022-09-24T07:18:20.085Z,13.20
2022-09-24T07:20:22.796Z,13.20
2022-09-24T07:22:25.570Z,13.20
2022-09-24T07:24:28.602Z,13.20
2022-09-24T07:26:31.460Z,13.20
2022-09-24T07:28:34.163Z,13.20
2022-09-24T07:30:37.361Z,13.20
2022-09-24T07:32:41.398Z,13.30
2022-09-24T07:34:44.079Z,13.30
2022-09-24T07:36:46.758Z,13.30
2022-09-24T07:38:49.464Z,13.50
2022-09-24T07:40:58.403Z,13.60
2022-09-24T07:43:01.251Z,13.60
2022-09-24T07:45:04.166Z,13.60
2022-09-24T07:47:07.039Z,13.70
2022-09-24T07:49:11.064Z,13.80
2022-09-24T07:51:13.743Z,13.80
2022-09-24T07:53:16.865Z,13.90
2022-09-24T07:55:19.782Z,14.00
2022-09-24T07:57:22.482Z,14.00
2022-09-24T07:59:25.819Z,14.00
2022-09-24T08:01:28.532Z,14.10
2022-09-24T08:03:32.319Z,14.20
2022-09-24T08:05:36.370Z,14.20
2022-09-24T08:07:39.092Z,14.20
2022-09-24T08:09:41.793Z,14.20
2022-09-24T08:11:44.716Z,14.20
2022-09-24T08:13:47.416Z,14.20
2022-09-24T08:15:57.162Z,14.20
2022-09-24T08:18:02.515Z,14.20
2022-09-24T08:20:05.750Z,14.20
2022-09-24T08:22:09.833Z,14.20
2022-09-24T08:24:12.637Z,14.20
2022-09-24T08:26:15.328Z,14.10
2022-09-24T08:28:19.647Z,14.10
2022-09-24T08:30:22.328Z,14.10
2022-09-24T08:32:25.093Z,14.10
2022-09-24T08:34:28.118Z,14.10
2022-09-24T08:36:30.806Z,14.20
2022-09-24T08:38:34.869Z,14.20
2022-09-24T08:40:38.887Z,14.20
2022-09-24T08:42:43.888Z,14.30
2022-09-24T08:45:04.464Z,14.30
2022-09-24T08:47:24.746Z,14.40
2022-09-24T08:49:32.721Z,14.40
2022-09-24T08:51:39.237Z,14.40
2022-09-24T08:53:48.592Z,14.40
2022-09-24T08:55:52.306Z,14.50
2022-09-24T08:57:59.240Z,14.50
2022-09-24T09:00:02.187Z,14.50
2022-09-24T09:02:16.609Z,14.40
2022-09-24T09:04:25.534Z,14.40
2022-09-24T09:06:55.841Z,14.40
2022-09-24T09:09:07.181Z,14.50
2022-09-24T09:11:11.501Z,14.50
2022-09-24T09:13:14.895Z,14.40
2022-09-24T09:15:19.066Z,14.30
2022-09-24T09:17:34.888Z,14.30
2022-09-24T09:19:37.778Z,14.30
2022-09-24T09:21:41.715Z,14.30
2022-09-24T09:23:47.932Z,14.30
2022-09-24T09:25:54.030Z,14.30
2022-09-24T09:27:59.615Z,14.30
2022-09-24T09:30:09.163Z,14.30
2022-09-24T09:32:22.552Z,14.30
2022-09-24T09:34:33.168Z,14.30
2022-09-24T09:36:46.082Z,14.30
2022-09-24T09:38:51.046Z,14.30
2022-09-24T09:40:58.825Z,14.30
2022-09-24T09:43:03.762Z,14.40
2022-09-24T09:45:16.507Z,14.40
2022-09-24T09:47:24.768Z,14.50
2022-09-24T09:49:28.979Z,14.50
2022-09-24T09:51:34.618Z,14.50
2022-09-24T09:53:37.908Z,14.60
2022-09-24T09:55:40.597Z,14.60
2022-09-24T09:57:45.251Z,14.70
2022-09-24T09:59:48.230Z,14.70
2022-09-24T10:01:55.691Z,14.70
2022-09-24T10:04:03.085Z,14.80
2022-09-24T10:06:07.266Z,14.70
2022-09-24T10:08:21.680Z,14.80
2022-09-24T10:10:25.186Z,14.80
2022-09-24T10:12:27.904Z,14.80
2022-09-24T10:14:31.943Z,14.90
2022-09-24T10:16:38.550Z,14.90
2022-09-24T10:18:43.796Z,14.90
2022-09-24T10:20:48.112Z,15.00
2022-09-24T10:22:52.182Z,15.10
2022-09-24T10:24:55.850Z,15.10
2022-09-24T10:26:58.604Z,15.10
2022-09-24T10:29:18.884Z,15.00
2022-09-24T10:31:23.639Z,15.20
2022-09-24T10:33:26.433Z,15.10
2022-09-24T10:35:30.178Z,15.10
2022-09-24T10:37:32.882Z,15.00
2022-09-24T10:39:35.562Z,15.10
2022-09-24T10:41:38.416Z,15.10
2022-09-24T10:43:41.334Z,15.10
2022-09-24T10:45:53.049Z,15.20
2022-09-24T10:47:58.759Z,15.20
2022-09-24T10:50:18.502Z,15.20
2022-09-24T10:52:31.829Z,15.20
2022-09-24T10:54:43.149Z,15.30
2022-09-24T10:56:48.821Z,15.30
2022-09-24T10:59:07.635Z,15.30
2022-09-24T11:01:15.041Z,15.40
2022-09-24T11:03:30.705Z,15.40
2022-09-24T11:05:34.566Z,15.40
2022-09-24T11:07:55.081Z,15.50
2022-09-24T11:09:59.312Z,15.50
2022-09-24T11:12:05.217Z,15.50
2022-09-24T11:14:17.012Z,15.50
2022-09-24T11:16:38.853Z,15.50
2022-09-24T11:18:46.777Z,15.50
2022-09-24T11:20:51.336Z,15.50
2022-09-24T11:23:31.368Z,15.50
2022-09-24T11:25:38.473Z,15.50
2022-09-24T11:27:50.203Z,15.60
2022-09-24T11:30:00.042Z,15.60
2022-09-24T11:32:08.233Z,15.60
2022-09-24T11:34:24.067Z,15.60
2022-09-24T11:36:37.388Z,15.70
2022-09-24T11:39:01.230Z,15.60
2022-09-24T11:41:13.664Z,15.60
2022-09-24T11:43:27.105Z,15.60
2022-09-24T11:45:37.084Z,15.60
2022-09-24T11:47:54.248Z,15.60
2022-09-24T11:50:21.786Z,15.60
2022-09-24T11:52:28.055Z,15.70
2022-09-24T11:54:31.880Z,15.70
2022-09-24T11:56:36.548Z,15.70
2022-09-24T11:58:42.491Z,15.60
2022-09-24T12:00:47.347Z,15.70
2022-09-24T12:02:51.460Z,15.70
2022-09-24T12:04:58.238Z,15.70
2022-09-24T12:07:04.032Z,15.70
2022-09-24T12:09:11.536Z,15.70
2022-09-24T12:11:16.603Z,15.70
2022-09-24T12:13:21.369Z,15.70
2022-09-24T12:15:25.300Z,15.70
2022-09-24T12:17:30.077Z,15.70
2022-09-24T12:19:35.344Z,15.70
2022-09-24T12:21:41.144Z,15.80
2022-09-24T12:23:45.668Z,15.90
2022-09-24T12:25:49.122Z,15.80
2022-09-24T12:27:51.815Z,15.80
2022-09-24T12:30:16.622Z,15.70
2022-09-24T12:32:38.188Z,15.70
2022-09-24T12:34:44.813Z,15.70
2022-09-24T12:36:57.530Z,15.70
2022-09-24T12:39:04.859Z,15.70
2022-09-24T12:41:34.771Z,15.70
2022-09-24T12:43:40.607Z,15.80
2022-09-24T12:45:43.284Z,15.70
2022-09-24T12:47:47.919Z,15.70
2022-09-24T12:49:53.807Z,15.70
2022-09-24T12:51:57.239Z,15.70
2022-09-24T12:54:01.068Z,15.70
2022-09-24T12:56:06.015Z,15.60
2022-09-24T12:58:24.836Z,15.60
2022-09-24T13:00:41.225Z,15.50
2022-09-24T13:02:46.160Z,15.40
2022-09-24T13:04:52.146Z,15.40
2022-09-24T13:06:54.836Z,15.40
2022-09-24T13:08:57.536Z,15.30
2022-09-24T13:11:00.803Z,15.40
2022-09-24T13:13:16.518Z,15.40
2022-09-24T13:15:28.564Z,15.40
2022-09-24T13:17:31.502Z,15.40
2022-09-24T13:19:36.274Z,15.40
2022-09-24T13:21:38.965Z,15.40
2022-09-24T13:23:47.075Z,15.40
2022-09-24T13:25:55.692Z,15.30
2022-09-24T13:28:04.133Z,15.30
2022-09-24T13:30:15.049Z,15.30
2022-09-24T13:32:19.531Z,15.30
2022-09-24T13:34:23.657Z,15.20
2022-09-24T13:36:29.066Z,15.20
2022-09-24T13:38:32.536Z,15.20
2022-09-24T13:40:37.947Z,15.20
2022-09-24T13:42:46.282Z,15.10
2022-09-24T13:44:51.409Z,15.10
2022-09-24T13:46:57.843Z,15.10
2022-09-24T13:49:03.582Z,15.10
2022-09-24T13:51:06.525Z,15.00
2022-09-24T13:53:13.528Z,15.00
2022-09-24T13:55:18.371Z,15.00
2022-09-24T13:57:22.824Z,15.00
2022-09-24T13:59:25.585Z,15.00
2022-09-24T14:01:30.679Z,15.00
2022-09-24T14:03:34.589Z,14.90
2022-09-24T14:05:37.409Z,14.90
2022-09-24T14:07:40.080Z,14.90
2022-09-24T14:09:44.380Z,14.90
2022-09-24T14:11:50.359Z,14.90
2022-09-24T14:13:54.951Z,14.90
2022-09-24T14:15:58.419Z,14.90
2022-09-24T14:18:03.008Z,14.90
2022-09-24T14:20:06.696Z,14.90
2022-09-24T14:22:12.948Z,15.00
2022-09-24T14:24:16.838Z,15.00
2022-09-24T14:26:26.475Z,15.00
2022-09-24T14:28:32.729Z,15.00
2022-09-24T14:30:35.435Z,15.00
2022-09-24T14:32:39.282Z,15.00
2022-09-24T14:34:43.839Z,15.00
2022-09-24T14:36:47.450Z,15.00
2022-09-24T14:38:53.937Z,15.00
2022-09-24T14:40:58.162Z,15.00
2022-09-24T14:43:02.755Z,14.90
2022-09-24T14:45:06.760Z,14.90
2022-09-24T14:47:24.370Z,14.80
2022-09-24T14:49:27.875Z,14.80
2022-09-24T14:51:32.724Z,14.80
2022-09-24T14:53:36.320Z,14.80
2022-09-24T14:55:39.436Z,14.70
2022-09-24T14:57:46.050Z,14.70
2022-09-24T14:59:51.584Z,14.70
2022-09-24T15:02:03.480Z,14.60
2022-09-24T15:04:08.089Z,14.60
2022-09-24T15:06:18.802Z,14.60
2022-09-24T15:08:28.322Z,14.60
2022-09-24T15:10:31.001Z,14.60
2022-09-24T15:12:34.625Z,14.50
2022-09-24T15:14:37.554Z,14.50
2022-09-24T15:16:40.336Z,14.50
2022-09-24T15:18:43.029Z,14.50
2022-09-24T15:20:45.709Z,14.40
2022-09-24T15:22:48.432Z,14.40
2022-09-24T15:24:54.361Z,14.40
2022-09-24T15:27:02.230Z,14.40
2022-09-24T15:29:05.146Z,14.40
2022-09-24T15:31:07.911Z,14.30
2022-09-24T15:33:11.697Z,14.30
2022-09-24T15:35:14.903Z,14.30
2022-09-24T15:37:19.838Z,14.30
2022-09-24T15:39:23.283Z,14.30
2022-09-24T15:41:27.319Z,14.30
2022-09-24T15:43:30.025Z,14.30
2022-09-24T15:45:33.253Z,14.30
2022-09-24T15:47:35.928Z,14.20
2022-09-24T15:49:38.703Z,14.20
2022-09-24T15:51:41.383Z,14.20
2022-09-24T15:53:44.187Z,14.20
2022-09-24T15:55:49.380Z,14.20
2022-09-24T15:57:53.901Z,14.20
2022-09-24T15:59:56.588Z,14.20
2022-09-24T16:02:00.870Z,14.20
2022-09-24T16:04:03.740Z,14.20
2022-09-24T16:06:06.812Z,14.20
2022-09-24T16:08:09.500Z,14.20
2022-09-24T16:10:12.716Z,14.10
2022-09-24T16:12:15.928Z,14.10
2022-09-24T16:14:19.959Z,14.10
2022-09-24T16:16:22.678Z,14.10
2022-09-24T16:18:26.036Z,14.10
2022-09-24T16:20:28.722Z,14.10
2022-09-24T16:22:31.397Z,14.10
2022-09-24T16:24:34.170Z,14.10
2022-09-24T16:26:37.287Z,14.10
2022-09-24T16:28:39.998Z,14.10
2022-09-24T16:30:44.110Z,14.10
2022-09-24T16:32:47.082Z,14.10
2022-09-24T16:34:49.772Z,14.10
2022-09-24T16:36:52.453Z,14.10
2022-09-24T16:38:55.145Z,14.10
2022-09-24T16:41:00.577Z,14.00
2022-09-24T16:43:03.340Z,14.10
2022-09-24T16:45:07.237Z,14.00
2022-09-24T16:47:11.246Z,14.00
2022-09-24T16:49:13.959Z,14.00
2022-09-24T16:51:17.305Z,14.00
2022-09-24T16:53:20.407Z,14.00
2022-09-24T16:55:24.362Z,14.00
2022-09-24T16:57:27.077Z,14.00
2022-09-24T16:59:29.784Z,13.90
2022-09-24T17:01:32.556Z,13.90
2022-09-24T17:03:36.767Z,13.90
2022-09-24T17:05:40.603Z,13.90
2022-09-24T17:07:43.330Z,13.90
2022-09-24T17:10:03.636Z,13.90
2022-09-24T17:12:06.531Z,13.90
2022-09-24T17:14:11.489Z,13.90
2022-09-24T17:16:14.293Z,13.80
2022-09-24T17:18:17.011Z,13.80
2022-09-24T17:20:21.241Z,13.80
2022-09-24T17:22:23.973Z,13.80
2022-09-24T17:24:27.137Z,13.80
2022-09-24T17:26:29.810Z,13.80
2022-09-24T17:28:33.679Z,13.80
2022-09-24T17:30:37.874Z,13.80
2022-09-24T17:32:40.542Z,13.70
2022-09-24T17:34:45.938Z,13.70
2022-09-24T17:36:50.453Z,13.70
2022-09-24T17:38:53.146Z,13.70
2022-09-24T17:40:56.061Z,13.70
2022-09-24T17:42:58.759Z,13.70
2022-09-24T17:45:01.452Z,13.70
2022-09-24T17:47:04.165Z,13.70
2022-09-24T17:49:06.987Z,13.70
2022-09-24T17:51:11.893Z,13.70
2022-09-24T17:53:16.116Z,13.70
2022-09-24T17:55:18.825Z,13.70
2022-09-24T17:57:21.489Z,13.70
2022-09-24T17:59:26.697Z,13.70
2022-09-24T18:01:33.308Z,13.70
2022-09-24T18:03:36.207Z,13.70
2022-09-24T18:05:38.905Z,13.70
2022-09-24T18:07:41.581Z,13.70
2022-09-24T18:09:45.610Z,13.70
2022-09-24T18:11:48.901Z,13.70
2022-09-24T18:13:52.008Z,13.70
2022-09-24T18:15:54.702Z,13.70
2022-09-24T18:17:57.614Z,13.60
2022-09-24T18:20:00.650Z,13.70
2022-09-24T18:22:05.940Z,13.70
2022-09-24T18:24:09.748Z,13.60
2022-09-24T18:26:16.816Z,13.60
2022-09-24T18:28:19.479Z,13.60
2022-09-24T18:30:22.164Z,13.60
2022-09-24T18:32:26.233Z,13.60
2022-09-24T18:34:29.764Z,13.60
2022-09-24T18:36:32.761Z,13.60
2022-09-24T18:38:35.465Z,13.60
2022-09-24T18:40:39.245Z,13.60
2022-09-24T18:42:43.308Z,13.60
2022-09-24T18:44:46.792Z,13.60
2022-09-24T18:46:49.726Z,13.60
2022-09-24T18:48:53.417Z,13.50
2022-09-24T18:50:56.094Z,13.50
2022-09-24T18:52:59.926Z,13.50
2022-09-24T18:55:02.612Z,13.50
2022-09-24T18:57:05.393Z,13.60
2022-09-24T18:59:11.800Z,13.50
2022-09-24T19:01:16.550Z,13.50
2022-09-24T19:03:19.546Z,13.60
2022-09-24T19:05:22.396Z,13.50
2022-09-24T19:07:25.079Z,13.50
2022-09-24T19:09:27.759Z,13.50
2022-09-24T19:11:31.620Z,13.50
2022-09-24T19:13:35.088Z,13.60
2022-09-24T19:15:39.346Z,13.50
2022-09-24T19:17:42.061Z,13.50
2022-09-24T19:19:52.106Z,13.50
2022-09-24T19:21:55.177Z,13.50
2022-09-24T19:23:58.798Z,13.50
2022-09-24T19:26:02.342Z,13.50
2022-09-24T19:28:06.109Z,13.50
2022-09-24T19:30:10.236Z,13.60
2022-09-24T19:32:14.307Z,13.60
2022-09-24T19:34:16.993Z,13.50
2022-09-24T19:36:19.831Z,13.60
2022-09-24T19:38:26.580Z,13.60
2022-09-24T19:40:30.351Z,13.50
2022-09-24T19:42:33.062Z,13.60
2022-09-24T19:44:36.556Z,13.50
2022-09-24T19:46:39.401Z,13.50
2022-09-24T19:48:44.183Z,13.60
2022-09-24T19:50:46.884Z,13.60
2022-09-24T19:52:49.968Z,13.60
2022-09-24T19:54:52.689Z,13.60
2022-09-24T19:56:55.356Z,13.60
2022-09-24T19:58:58.879Z,13.60
2022-09-24T20:01:02.507Z,13.60
2022-09-24T20:03:05.439Z,13.60
2022-09-24T20:05:09.833Z,13.60
2022-09-24T20:07:12.505Z,13.60
2022-09-24T20:09:15.200Z,13.50
2022-09-24T20:11:20.295Z,13.50
2022-09-24T20:13:22.989Z,13.50
2022-09-24T20:15:25.708Z,13.50
2022-09-24T20:17:29.595Z,13.50
2022-09-24T20:19:32.278Z,13.50
2022-09-24T20:21:36.815Z,13.50
2022-09-24T20:23:39.739Z,13.50
2022-09-24T20:26:00.263Z,13.50
2022-09-24T20:28:03.107Z,13.50
2022-09-24T20:30:06.737Z,13.50
2022-09-24T20:32:11.906Z,13.50
2022-09-24T20:34:14.613Z,13.50
2022-09-24T20:36:21.907Z,13.50
2022-09-24T20:38:28.361Z,13.50
2022-09-24T20:40:31.090Z,13.60
2022-09-24T20:42:33.790Z,13.50
2022-09-24T20:44:37.349Z,13.50
2022-09-24T20:46:40.201Z,13.50
2022-09-24T20:48:43.038Z,13.50
2022-09-24T20:50:45.717Z,13.50
2022-09-24T20:52:48.460Z,13.50
2022-09-24T20:54:52.522Z,13.50
2022-09-24T20:56:55.858Z,13.40
2022-09-24T20:58:58.695Z,13.40
2022-09-24T21:01:01.581Z,13.40
2022-09-24T21:03:25.656Z,13.40
2022-09-24T21:05:28.063Z,13.40
2022-09-24T21:07:30.786Z,13.40
2022-09-24T21:09:33.468Z,13.40
2022-09-24T21:11:37.725Z,13.40
2022-09-24T21:13:41.247Z,13.30
2022-09-24T21:15:43.993Z,13.30
2022-09-24T21:18:05.105Z,13.30
2022-09-24T21:20:10.660Z,13.30
2022-09-24T21:22:13.563Z,13.30
2022-09-24T21:24:16.591Z,13.30
2022-09-24T21:26:20.403Z,13.30
2022-09-24T21:28:24.494Z,13.30
2022-09-24T21:30:27.825Z,13.30
2022-09-24T21:32:31.441Z,13.30
2022-09-24T21:34:35.085Z,13.30
2022-09-24T21:36:43.775Z,13.30
2022-09-24T21:38:52.754Z,13.30
2022-09-24T21:40:55.626Z,13.30
2022-09-24T21:43:00.115Z,13.30
2022-09-24T21:45:04.914Z,13.30
2022-09-24T21:47:07.580Z,13.30
2022-09-24T21:49:10.529Z,13.30
2022-09-24T21:51:19.358Z,13.30
2022-09-24T21:53:22.040Z,13.30
2022-09-24T21:55:25.588Z,13.30
2022-09-24T21:57:28.269Z,13.30
2022-09-24T21:59:48.721Z,13.30
2022-09-24T22:01:53.227Z,13.30
2022-09-24T22:03:56.395Z,13.30
2022-09-24T22:06:00.166Z,13.30
2022-09-24T22:08:03.332Z,13.30
2022-09-24T22:10:07.091Z,13.30
2022-09-24T22:12:10.314Z,13.30
2022-09-24T22:14:13.268Z,13.30
2022-09-24T22:16:15.932Z,13.30
2022-09-24T22:18:19.937Z,13.30
2022-09-24T22:20:22.618Z,13.20
2022-09-24T22:22:25.393Z,13.20
2022-09-24T22:24:28.398Z,13.20
2022-09-24T22:26:31.079Z,13.20
2022-09-24T22:28:33.942Z,13.20
2022-09-24T22:30:36.698Z,13.20
2022-09-24T22:32:39.407Z,13.20
2022-09-24T22:35:00.953Z,13.20
2022-09-24T22:37:05.947Z,13.20
2022-09-24T22:39:08.884Z,13.10
2022-09-24T22:41:12.089Z,13.10
2022-09-24T22:43:14.773Z,13.10
2022-09-24T22:45:17.800Z,13.10
2022-09-24T22:47:20.474Z,13.10
2022-09-24T22:49:23.451Z,13.10
2022-09-24T22:51:27.732Z,13.10
2022-09-24T22:53:30.449Z,13.10
2022-09-24T22:55:33.136Z,13.10
2022-09-24T22:57:35.800Z,13.10
2022-09-24T22:59:38.484Z,13.10
2022-09-24T23:01:42.104Z,13.10
2022-09-24T23:03:45.136Z,13.10
2022-09-24T23:05:47.801Z,13.10
2022-09-24T23:07:51.793Z,13.10
2022-09-24T23:09:54.815Z,13.00
2022-09-24T23:11:57.471Z,13.10
2022-09-24T23:14:01.417Z,13.00
2022-09-24T23:16:08.521Z,13.00
2022-09-24T23:18:11.191Z,13.00
2022-09-24T23:20:14.397Z,12.90
2022-09-24T23:22:17.209Z,12.90
2022-09-24T23:24:21.824Z,12.90
2022-09-24T23:26:24.907Z,12.90
2022-09-24T23:28:27.585Z,12.90
2022-09-24T23:30:31.321Z,12.90
2022-09-24T23:32:34.079Z,12.90
2022-09-24T23:34:36.785Z,12.80
2022-09-24T23:36:39.665Z,12.90
2022-09-24T23:38:42.407Z,12.80
2022-09-24T23:40:46.848Z,12.80
2022-09-24T23:42:49.983Z,12.80
2022-09-24T23:44:52.653Z,12.80
2022-09-24T23:46:56.445Z,12.80
2022-09-24T23:48:59.145Z,12.80
2022-09-24T23:51:01.840Z,12.80
2022-09-24T23:53:04.970Z,12.70
2022-09-24T23:55:08.333Z,12.80
2022-09-24T23:57:12.333Z,12.80
2022-09-24T23:59:15.007Z,12.80
